createdAt,value
2022-09-15T00:00:55.816Z,0.88
2022-09-15T00:03:28.790Z,1.05
2022-09-15T00:08:32.265Z,1.17
2022-09-15T00:11:03.754Z,1.38
2022-09-15T00:13:36.085Z,1.30
2022-09-15T00:16:07.577Z,1.15
2022-09-15T00:18:39.588Z,1.00
2022-09-15T00:21:11.107Z,1.00
2022-09-15T00:23:42.938Z,1.20
2022-09-15T00:26:14.428Z,1.02
2022-09-15T00:28:46.325Z,1.55
2022-09-15T00:31:18.222Z,1.45
2022-09-15T00:33:49.862Z,1.17
2022-09-15T00:36:21.751Z,0.95
2022-09-15T00:38:53.266Z,1.40
2022-09-15T00:41:25.268Z,0.90
2022-09-15T00:43:56.930Z,1.00
2022-09-15T00:46:28.748Z,1.58
2022-09-15T00:49:00.271Z,1.40
2022-09-15T00:51:32.150Z,1.35
2022-09-15T00:54:03.641Z,1.23
2022-09-15T00:56:35.558Z,1.13
2022-09-15T00:59:07.070Z,0.95
2022-09-15T01:01:39.039Z,0.90
2022-09-15T01:04:10.852Z,1.05
2022-09-15T01:06:43.142Z,1.48
2022-09-15T01:09:14.670Z,1.17
2022-09-15T01:11:46.527Z,1.40
2022-09-15T01:14:18.029Z,1.10
2022-09-15T01:16:49.948Z,1.17
2022-09-15T01:19:21.996Z,0.93
2022-09-15T01:21:58.620Z,1.10
2022-09-15T01:24:30.465Z,1.00
2022-09-15T01:27:13.882Z,0.90
2022-09-15T01:29:54.231Z,1.25
2022-09-15T01:32:44.720Z,1.13
2022-09-15T01:35:16.317Z,1.23
2022-09-15T01:37:49.203Z,1.00
2022-09-15T01:40:20.765Z,1.65
2022-09-15T01:42:52.313Z,1.80
2022-09-15T01:45:24.245Z,1.10
2022-09-15T01:47:55.785Z,0.63
2022-09-15T01:50:28.068Z,0.95
2022-09-15T01:52:59.571Z,1.55
2022-09-15T01:55:32.353Z,1.15
2022-09-15T01:58:03.907Z,1.10
2022-09-15T02:00:35.925Z,1.25
2022-09-15T02:03:08.447Z,1.27
2022-09-15T02:05:40.407Z,1.05
2022-09-15T02:08:12.032Z,0.88
2022-09-15T02:10:44.302Z,1.60
2022-09-15T02:13:17.115Z,1.58
2022-09-15T02:15:49.079Z,1.23
2022-09-15T02:18:20.582Z,0.90
2022-09-15T02:20:52.413Z,1.00
2022-09-15T02:23:26.246Z,0.82
2022-09-15T02:25:58.202Z,1.00
2022-09-15T02:28:29.739Z,1.35
2022-09-15T02:31:01.678Z,1.10
2022-09-15T02:33:33.236Z,1.13
2022-09-15T02:36:05.136Z,1.15
2022-09-15T02:38:36.703Z,1.05
2022-09-15T02:41:08.589Z,1.15
2022-09-15T02:43:40.150Z,1.30
2022-09-15T02:46:12.045Z,1.65
2022-09-15T02:48:43.666Z,1.08
2022-09-15T02:51:15.425Z,1.10
2022-09-15T02:53:46.975Z,1.10
2022-09-15T02:56:18.943Z,1.30
2022-09-15T02:58:50.494Z,1.60
2022-09-15T03:01:23.590Z,1.13
2022-09-15T03:03:55.162Z,0.98
2022-09-15T03:06:29.686Z,1.55
2022-09-15T03:09:01.223Z,1.23
2022-09-15T03:11:33.315Z,1.60
2022-09-15T03:14:04.902Z,0.90
2022-09-15T03:16:37.170Z,1.25
2022-09-15T03:19:08.812Z,1.00
2022-09-15T03:21:41.869Z,1.20
2022-09-15T03:24:15.322Z,1.27
2022-09-15T03:26:47.200Z,1.30
2022-09-15T03:29:18.692Z,1.02
2022-09-15T03:31:50.596Z,1.20
2022-09-15T03:34:22.139Z,1.25
2022-09-15T03:36:54.027Z,1.50
2022-09-15T03:39:25.928Z,1.30
2022-09-15T03:41:57.434Z,1.10
2022-09-15T03:44:29.413Z,1.02
2022-09-15T03:47:00.922Z,1.05
2022-09-15T03:49:32.968Z,1.23
2022-09-15T03:52:04.493Z,1.07
2022-09-15T03:54:36.531Z,1.23
2022-09-15T03:57:08.116Z,1.08
2022-09-15T03:59:40.003Z,1.30
2022-09-15T04:02:11.670Z,1.13
2022-09-15T04:04:43.581Z,1.48
2022-09-15T04:07:15.152Z,1.30
2022-09-15T04:09:47.134Z,0.88
2022-09-15T04:12:18.754Z,2.13
2022-09-15T04:14:50.603Z,1.30
2022-09-15T04:17:22.691Z,1.35
2022-09-15T04:19:54.709Z,1.27
2022-09-15T04:22:26.311Z,1.20
2022-09-15T04:24:58.248Z,1.40
2022-09-15T04:27:32.078Z,1.48
2022-09-15T04:30:03.659Z,1.40
2022-09-15T04:32:35.712Z,1.27
2022-09-15T04:35:07.628Z,1.40
2022-09-15T04:37:39.754Z,0.93
2022-09-15T04:40:11.709Z,0.90
2022-09-15T04:42:43.267Z,1.47
2022-09-15T04:45:15.058Z,1.00
2022-09-15T04:47:48.425Z,0.95
2022-09-15T04:50:20.379Z,0.95
2022-09-15T04:52:52.703Z,1.00
2022-09-15T04:55:24.708Z,1.00
2022-09-15T04:57:56.200Z,1.20
2022-09-15T05:00:28.120Z,0.98
2022-09-15T05:02:59.735Z,1.00
2022-09-15T05:05:31.597Z,1.20
2022-09-15T05:08:03.404Z,1.45
2022-09-15T05:10:35.265Z,1.40
2022-09-15T05:13:06.769Z,1.10
2022-09-15T05:15:38.773Z,0.93
2022-09-15T05:18:10.335Z,1.25
2022-09-15T05:20:42.287Z,1.50
2022-09-15T05:23:13.997Z,1.35
2022-09-15T05:25:45.901Z,0.90
2022-09-15T05:28:17.977Z,1.20
2022-09-15T05:30:49.570Z,0.90
2022-09-15T05:33:21.635Z,1.15
2022-09-15T05:35:53.300Z,1.27
2022-09-15T05:38:25.083Z,1.02
2022-09-15T05:40:56.610Z,0.93
2022-09-15T05:43:28.428Z,1.17
2022-09-15T05:45:59.928Z,1.15
2022-09-15T05:48:31.719Z,1.08
2022-09-15T05:51:03.263Z,0.90
2022-09-15T05:53:35.339Z,1.02
2022-09-15T05:56:06.833Z,2.03
2022-09-15T05:58:38.657Z,1.17
2022-09-15T06:01:10.157Z,0.80
2022-09-15T06:03:42.080Z,0.85
2022-09-15T06:06:13.562Z,1.00
2022-09-15T06:08:47.993Z,1.33
2022-09-15T06:11:19.842Z,1.00
2022-09-15T06:13:52.008Z,1.00
2022-09-15T06:16:23.589Z,0.90
2022-09-15T06:18:55.476Z,1.30
2022-09-15T06:21:26.962Z,1.23
2022-09-15T06:23:59.293Z,0.90
2022-09-15T06:26:30.830Z,1.10
2022-09-15T06:29:03.035Z,1.13
2022-09-15T06:31:34.557Z,1.02
2022-09-15T06:34:07.104Z,1.23
2022-09-15T06:36:39.084Z,1.02
2022-09-15T06:39:10.998Z,1.30
2022-09-15T06:42:01.391Z,1.10
2022-09-15T06:44:34.232Z,0.85
2022-09-15T06:47:05.714Z,0.80
2022-09-15T06:49:37.558Z,0.73
2022-09-15T06:52:09.062Z,0.70
2022-09-15T06:54:40.878Z,0.80
2022-09-15T06:57:12.368Z,0.60
2022-09-15T06:59:44.863Z,0.82
2022-09-15T07:02:16.427Z,0.80
2022-09-15T07:04:48.371Z,0.75
2022-09-15T07:07:19.907Z,0.60
2022-09-15T07:09:51.711Z,1.08
2022-09-15T07:12:23.228Z,0.68
2022-09-15T07:14:55.149Z,0.77
2022-09-15T07:17:27.217Z,0.80
2022-09-15T07:19:59.105Z,0.60
2022-09-15T07:22:30.685Z,0.52
2022-09-15T07:25:02.682Z,0.75
2022-09-15T07:27:34.178Z,0.45
2022-09-15T07:30:08.830Z,1.27
2022-09-15T07:32:40.339Z,0.70
2022-09-15T07:35:12.926Z,0.50
2022-09-15T07:37:44.744Z,0.68
2022-09-15T07:40:17.062Z,1.00
2022-09-15T07:42:48.673Z,0.65
2022-09-15T07:45:20.415Z,1.00
2022-09-15T07:47:51.995Z,1.00
2022-09-15T07:50:23.883Z,1.25
2022-09-15T07:52:55.359Z,0.95
2022-09-15T07:55:27.194Z,0.80
2022-09-15T07:57:59.160Z,0.70
2022-09-15T08:00:31.684Z,0.60
2022-09-15T08:03:03.238Z,0.80
2022-09-15T08:05:39.414Z,0.90
2022-09-15T08:08:12.819Z,0.60
2022-09-15T08:10:44.659Z,0.90
2022-09-15T08:13:16.669Z,0.50
2022-09-15T08:15:48.292Z,0.70
2022-09-15T08:18:20.284Z,0.80
2022-09-15T08:20:51.901Z,0.80
2022-09-15T08:23:23.814Z,0.93
2022-09-15T08:25:55.365Z,0.70
2022-09-15T08:28:27.174Z,0.80
2022-09-15T08:30:59.907Z,0.70
2022-09-15T08:33:31.806Z,0.50
2022-09-15T08:36:03.310Z,0.40
2022-09-15T08:38:35.157Z,0.60
2022-09-15T08:41:06.641Z,1.23
2022-09-15T08:43:38.482Z,0.70
2022-09-15T08:46:10.036Z,0.70
2022-09-15T08:48:41.894Z,0.50
2022-09-15T08:51:13.395Z,0.50
2022-09-15T08:53:45.869Z,0.93
2022-09-15T08:56:17.620Z,0.60
2022-09-15T08:58:49.624Z,0.60
2022-09-15T09:01:21.160Z,0.70
2022-09-15T09:03:53.313Z,0.50
2022-09-15T09:06:24.806Z,0.90
2022-09-15T09:08:56.769Z,0.45
2022-09-15T09:11:28.269Z,0.60
2022-09-15T09:14:00.140Z,0.50
2022-09-15T09:16:31.646Z,0.82
2022-09-15T09:19:04.096Z,0.75
2022-09-15T09:21:35.587Z,0.52
2022-09-15T09:24:07.619Z,0.40
2022-09-15T09:26:39.913Z,0.60
2022-09-15T09:29:12.019Z,0.90
2022-09-15T09:31:43.584Z,0.77
2022-09-15T09:34:15.542Z,0.60
2022-09-15T09:36:47.140Z,0.50
2022-09-15T09:39:19.072Z,0.52
2022-09-15T09:41:51.590Z,0.70
2022-09-15T09:44:31.685Z,0.60
2022-09-15T09:47:04.380Z,0.52
2022-09-15T09:49:35.893Z,0.57
2022-09-15T09:52:07.729Z,0.82
2022-09-15T09:54:39.282Z,0.60
2022-09-15T09:57:11.227Z,0.60
2022-09-15T09:59:42.733Z,0.93
2022-09-15T10:02:14.737Z,0.70
2022-09-15T10:04:46.285Z,0.63
2022-09-15T10:07:18.199Z,0.50
2022-09-15T10:09:50.348Z,0.70
2022-09-15T10:12:22.218Z,0.60
2022-09-15T10:14:53.763Z,0.43
2022-09-15T10:17:25.764Z,0.50
2022-09-15T10:19:57.270Z,0.40
2022-09-15T10:22:29.414Z,0.50
2022-09-15T10:25:01.085Z,0.30
2022-09-15T10:27:32.977Z,0.40
2022-09-15T10:30:04.496Z,0.32
2022-09-15T10:32:36.401Z,0.50
2022-09-15T10:35:07.924Z,0.40
2022-09-15T10:37:39.957Z,0.55
2022-09-15T10:40:11.578Z,0.40
2022-09-15T10:42:43.400Z,0.20
2022-09-15T10:45:14.939Z,0.40
2022-09-15T10:47:46.865Z,0.30
2022-09-15T10:50:18.719Z,0.60
2022-09-15T10:52:50.230Z,0.40
2022-09-15T10:55:36.770Z,0.32
2022-09-15T10:58:13.506Z,0.50
2022-09-15T11:00:45.563Z,0.55
2022-09-15T11:03:17.089Z,0.40
2022-09-15T11:05:49.111Z,0.40
2022-09-15T11:08:20.673Z,0.38
2022-09-15T11:10:52.528Z,0.50
2022-09-15T11:13:24.027Z,0.40
2022-09-15T11:15:56.930Z,0.40
2022-09-15T11:18:28.484Z,0.40
2022-09-15T11:21:00.366Z,0.32
2022-09-15T11:23:32.692Z,0.43
2022-09-15T11:26:04.550Z,0.38
2022-09-15T11:28:36.030Z,0.50
2022-09-15T11:31:07.960Z,0.20
2022-09-15T11:33:39.509Z,0.20
2022-09-15T11:36:11.371Z,0.40
2022-09-15T11:38:43.092Z,0.50
2022-09-15T11:41:15.006Z,0.28
2022-09-15T11:43:46.562Z,0.30
2022-09-15T11:46:18.459Z,0.63
2022-09-15T11:48:50.203Z,0.40
2022-09-15T11:51:22.224Z,0.50
2022-09-15T11:53:53.784Z,0.40
2022-09-15T11:56:25.724Z,0.50
2022-09-15T11:58:57.242Z,0.40
2022-09-15T12:01:29.288Z,0.40
2022-09-15T12:04:02.193Z,0.55
2022-09-15T12:06:34.021Z,0.50
2022-09-15T12:09:05.532Z,0.40
2022-09-15T12:11:37.338Z,0.65
2022-09-15T12:14:08.883Z,0.35
2022-09-15T12:16:40.836Z,0.43
2022-09-15T12:19:12.341Z,0.40
2022-09-15T12:21:44.423Z,0.40
2022-09-15T12:24:16.442Z,0.50
2022-09-15T12:26:48.245Z,0.35
2022-09-15T12:29:19.731Z,0.40
2022-09-15T12:31:51.569Z,0.52
2022-09-15T12:34:23.186Z,0.43
2022-09-15T12:36:55.266Z,0.47
2022-09-15T12:39:26.786Z,0.50
2022-09-15T12:41:58.581Z,0.65
2022-09-15T12:44:30.895Z,0.32
2022-09-15T12:47:02.944Z,0.50
2022-09-15T12:49:34.443Z,0.40
2022-09-15T12:52:06.331Z,0.50
2022-09-15T12:54:38.326Z,0.85
2022-09-15T12:57:09.809Z,0.37
2022-09-15T12:59:41.602Z,0.47
2022-09-15T13:02:13.174Z,0.40
2022-09-15T13:04:45.368Z,0.43
2022-09-15T13:07:17.251Z,0.50
2022-09-15T13:09:49.084Z,0.30
2022-09-15T13:12:20.598Z,0.50
2022-09-15T13:14:52.513Z,0.40
2022-09-15T13:17:23.997Z,0.60
2022-09-15T13:19:55.830Z,0.50
2022-09-15T13:22:27.441Z,0.35
2022-09-15T13:25:01.802Z,0.40
2022-09-15T13:27:33.613Z,0.52
2022-09-15T13:30:05.532Z,0.50
2022-09-15T13:32:37.035Z,0.50
2022-09-15T13:35:15.206Z,0.38
2022-09-15T13:40:41.456Z,0.40
2022-09-15T13:43:13.042Z,0.85
2022-09-15T13:45:44.956Z,0.30
2022-09-15T13:48:16.718Z,0.63
2022-09-15T13:50:48.699Z,0.60
2022-09-15T13:53:24.144Z,0.60
2022-09-15T13:55:56.103Z,0.38
2022-09-15T14:01:19.589Z,0.40
2022-09-15T14:03:51.592Z,0.55
2022-09-15T14:06:23.247Z,0.32
2022-09-15T14:08:55.082Z,0.50
2022-09-15T14:11:26.615Z,0.40
2022-09-15T14:13:59.488Z,0.43
2022-09-15T14:16:31.145Z,0.40
2022-09-15T14:19:04.117Z,0.40
2022-09-15T14:21:36.199Z,0.32
2022-09-15T14:24:08.059Z,0.32
2022-09-15T14:26:39.621Z,0.40
2022-09-15T14:29:11.426Z,0.43
2022-09-15T14:31:42.991Z,0.70
2022-09-15T14:34:14.868Z,0.38
2022-09-15T14:36:46.336Z,0.50
2022-09-15T14:39:18.234Z,0.57
2022-09-15T14:41:50.037Z,0.60
2022-09-15T14:47:13.705Z,0.40
2022-09-15T14:49:45.547Z,0.57
2022-09-15T14:52:17.146Z,0.40
2022-09-15T14:54:49.068Z,0.40
2022-09-15T14:57:20.604Z,0.43
2022-09-15T14:59:52.994Z,0.52
2022-09-15T15:02:24.530Z,0.60
2022-09-15T15:04:57.758Z,0.35
2022-09-15T15:07:29.279Z,0.43
2022-09-15T15:10:01.112Z,0.50
2022-09-15T15:12:32.629Z,0.40
2022-09-15T15:15:04.567Z,0.40
2022-09-15T15:17:36.082Z,0.40
2022-09-15T15:20:07.944Z,0.28
2022-09-15T15:22:39.438Z,0.40
2022-09-15T15:25:11.361Z,0.30
2022-09-15T15:27:42.891Z,0.60
2022-09-15T15:30:14.765Z,0.25
2022-09-15T15:32:46.257Z,0.30
2022-09-15T15:35:18.247Z,0.35
2022-09-15T15:37:49.856Z,0.40
2022-09-15T15:40:23.477Z,0.30
2022-09-15T15:42:59.393Z,0.30
2022-09-15T15:45:32.092Z,0.15
2022-09-15T15:48:04.286Z,0.40
2022-09-15T15:50:36.354Z,0.30
2022-09-15T15:53:08.156Z,0.40
2022-09-15T15:55:39.651Z,0.20
2022-09-15T15:58:11.448Z,0.38
2022-09-15T16:00:44.209Z,0.50
2022-09-15T16:03:16.373Z,0.47
2022-09-15T16:05:47.899Z,0.10
2022-09-15T16:08:19.881Z,0.13
2022-09-15T16:10:51.635Z,0.10
2022-09-15T16:13:23.302Z,0.25
2022-09-15T16:15:56.583Z,0.15
2022-09-15T16:18:28.653Z,0.28
2022-09-15T16:21:00.156Z,0.17
2022-09-15T16:23:31.957Z,0.17
2022-09-15T16:26:03.465Z,0.20
2022-09-15T16:28:35.052Z,0.40
2022-09-15T16:31:06.577Z,0.20
2022-09-15T16:33:38.616Z,0.20
2022-09-15T16:36:12.230Z,0.20
2022-09-15T16:38:44.179Z,0.32
2022-09-15T16:41:15.726Z,0.20
2022-09-15T16:43:47.564Z,0.20
2022-09-15T16:46:19.115Z,0.20
2022-09-15T16:48:51.007Z,0.28
2022-09-15T16:51:28.938Z,0.30
2022-09-15T16:54:03.102Z,0.45
2022-09-15T16:56:34.583Z,0.20
2022-09-15T16:59:06.716Z,0.30
2022-09-15T17:01:38.256Z,0.13
2022-09-15T17:04:10.115Z,0.30
2022-09-15T17:06:41.613Z,0.40
2022-09-15T17:09:13.422Z,0.30
2022-09-15T17:11:44.933Z,0.20
2022-09-15T17:14:18.508Z,0.22
2022-09-15T17:16:52.801Z,0.40
2022-09-15T17:19:24.675Z,0.15
2022-09-15T17:21:56.172Z,0.20
2022-09-15T17:24:27.697Z,0.10
2022-09-15T17:26:59.245Z,0.10
2022-09-15T17:29:31.017Z,0.20
2022-09-15T17:32:02.515Z,0.20
2022-09-15T17:34:34.500Z,0.20
2022-09-15T17:37:05.986Z,0.40
2022-09-15T17:39:37.826Z,0.10
2022-09-15T17:42:09.327Z,0.13
2022-09-15T17:44:41.146Z,0.20
2022-09-15T17:47:12.726Z,0.20
2022-09-15T17:49:44.539Z,0.20
2022-09-15T17:52:16.105Z,0.40
2022-09-15T17:54:47.904Z,0.20
2022-09-15T17:57:19.425Z,0.20
2022-09-15T17:59:50.927Z,0.40
2022-09-15T18:02:22.609Z,0.25
2022-09-15T18:04:54.475Z,0.10
2022-09-15T18:07:25.971Z,0.35
2022-09-15T18:09:57.561Z,0.22
2022-09-15T18:12:29.131Z,0.30
2022-09-15T18:15:00.625Z,0.40
2022-09-15T18:17:32.116Z,0.30
2022-09-15T18:20:04.240Z,0.15
2022-09-15T18:22:35.757Z,0.20
2022-09-15T18:25:07.929Z,0.17
2022-09-15T18:27:39.435Z,0.30
2022-09-15T18:30:11.488Z,0.20
2022-09-15T18:32:42.982Z,0.20
2022-09-15T18:35:18.330Z,0.28
2022-09-15T18:37:50.206Z,0.22
2022-09-15T18:40:22.053Z,0.30
2022-09-15T18:42:53.670Z,0.30
2022-09-15T18:45:25.444Z,0.30
2022-09-15T18:47:57.399Z,0.30
2022-09-15T18:50:28.954Z,0.38
2022-09-15T18:53:00.963Z,0.30
2022-09-15T18:55:32.669Z,0.20
2022-09-15T18:58:04.549Z,0.40
2022-09-15T19:03:14.507Z,0.50
2022-09-15T19:05:46.072Z,0.30
2022-09-15T19:08:17.970Z,0.20
2022-09-15T19:10:49.461Z,0.10
2022-09-15T19:13:21.377Z,0.20
2022-09-15T19:15:53.591Z,0.30
2022-09-15T19:18:25.490Z,0.28
2022-09-15T19:20:56.995Z,0.38
2022-09-15T19:23:28.847Z,0.30
2022-09-15T19:26:00.335Z,0.22
2022-09-15T19:31:22.249Z,0.30
2022-09-15T19:33:54.342Z,0.43
2022-09-15T19:36:29.403Z,0.37
2022-09-15T19:39:03.858Z,0.43
2022-09-15T19:41:35.349Z,0.50
2022-09-15T19:44:10.607Z,0.40
2022-09-15T19:46:42.508Z,0.40
2022-09-15T19:49:14.055Z,0.32
2022-09-15T19:51:45.585Z,0.30
2022-09-15T19:54:17.411Z,0.40
2022-09-15T19:56:48.964Z,0.40
2022-09-15T19:59:20.873Z,0.30
2022-09-15T20:01:52.428Z,0.17
2022-09-15T20:04:24.261Z,0.20
2022-09-15T20:06:55.778Z,0.30
2022-09-15T20:09:27.659Z,0.65
2022-09-15T20:12:03.032Z,0.45
2022-09-15T20:14:34.901Z,0.75
2022-09-15T20:17:06.408Z,0.30
2022-09-15T20:19:38.577Z,0.52
2022-09-15T20:22:10.099Z,0.40
2022-09-15T20:24:41.974Z,0.47
2022-09-15T20:27:14.027Z,0.22
2022-09-15T20:29:46.011Z,0.40
2022-09-15T20:32:17.543Z,0.60
2022-09-15T20:34:49.445Z,0.38
2022-09-15T20:37:22.992Z,0.60
2022-09-15T20:39:54.884Z,0.30
2022-09-15T20:42:26.399Z,0.50
2022-09-15T20:44:58.261Z,0.40
2022-09-15T20:47:29.743Z,0.30
2022-09-15T20:50:01.625Z,0.68
2022-09-15T20:52:38.044Z,0.32
2022-09-15T20:55:10.364Z,0.20
2022-09-15T20:57:41.852Z,0.30
2022-09-15T21:00:13.692Z,0.30
2022-09-15T21:02:45.765Z,0.20
2022-09-15T21:05:17.314Z,0.20
2022-09-15T21:07:49.277Z,0.25
2022-09-15T21:10:24.802Z,0.40
2022-09-15T21:12:56.661Z,0.30
2022-09-15T21:15:28.137Z,0.32
2022-09-15T21:18:00.060Z,0.30
2022-09-15T21:20:31.553Z,0.30
2022-09-15T21:23:04.284Z,0.25
2022-09-15T21:25:35.776Z,0.40
2022-09-15T21:28:08.080Z,0.45
2022-09-15T21:30:39.805Z,0.38
2022-09-15T21:33:11.319Z,0.50
2022-09-15T21:35:42.791Z,0.32
2022-09-15T21:38:14.298Z,0.43
2022-09-15T21:40:45.898Z,0.40
2022-09-15T21:43:17.843Z,0.60
2022-09-15T21:45:49.361Z,0.30
2022-09-15T21:48:21.385Z,0.35
2022-09-15T21:50:52.881Z,0.38
2022-09-15T21:53:24.390Z,0.35
2022-09-15T21:55:56.532Z,0.20
2022-09-15T21:58:38.961Z,0.20
2022-09-15T22:01:13.929Z,0.30
2022-09-15T22:03:45.541Z,0.30
2022-09-15T22:06:17.227Z,0.45
2022-09-15T22:08:49.289Z,0.25
2022-09-15T22:11:20.809Z,0.33
2022-09-15T22:13:52.581Z,0.30
2022-09-15T22:16:24.102Z,0.30
2022-09-15T22:18:56.226Z,0.30
2022-09-15T22:21:27.719Z,0.40
2022-09-15T22:23:59.684Z,0.38
2022-09-15T22:26:31.183Z,0.35
2022-09-15T22:29:03.063Z,0.28
2022-09-15T22:31:34.654Z,0.30
2022-09-15T22:34:06.501Z,0.30
2022-09-15T22:36:37.995Z,0.30
2022-09-15T22:39:09.997Z,0.32
2022-09-15T22:41:41.528Z,0.17
2022-09-15T22:44:13.355Z,0.40
2022-09-15T22:46:44.849Z,0.43
2022-09-15T22:49:16.705Z,0.32
2022-09-15T22:51:48.214Z,0.35
2022-09-15T22:54:20.226Z,0.30
2022-09-15T22:56:51.736Z,0.40
2022-09-15T22:59:23.567Z,0.30
2022-09-15T23:01:55.107Z,0.10
2022-09-15T23:04:26.958Z,0.22
2022-09-15T23:06:58.506Z,0.30
2022-09-15T23:09:30.375Z,0.22
2022-09-15T23:12:01.859Z,0.10
2022-09-15T23:14:33.674Z,0.38
2022-09-15T23:17:05.216Z,0.50
2022-09-15T23:19:37.125Z,0.13
2022-09-15T23:22:08.612Z,0.10
2022-09-15T23:24:40.429Z,0.38
2022-09-15T23:27:11.919Z,0.30
2022-09-15T23:29:43.917Z,0.40
2022-09-15T23:32:15.422Z,0.40
2022-09-15T23:34:47.261Z,0.25
2022-09-15T23:37:18.767Z,0.28
2022-09-15T23:39:50.639Z,0.40
2022-09-15T23:42:22.155Z,0.20
2022-09-15T23:44:53.916Z,0.30
2022-09-15T23:47:25.435Z,0.20
2022-09-15T23:49:57.431Z,0.20
2022-09-15T23:52:28.937Z,0.32
2022-09-15T23:55:00.800Z,0.50
2022-09-15T23:57:32.277Z,0.40
